createdAt,value
2023-08-05T00:01:03.685Z,5.60
2023-08-05T00:03:31.376Z,5.45
2023-08-05T00:05:58.815Z,5.70
2023-08-05T00:08:26.604Z,6.07
2023-08-05T00:10:54.684Z,6.60
2023-08-05T00:13:22.329Z,5.82
2023-08-05T00:15:50.853Z,5.78
2023-08-05T00:18:18.507Z,5.07
2023-08-05T00:20:45.879Z,4.85
2023-08-05T00:23:13.578Z,5.22
2023-08-05T00:25:41.040Z,4.53
2023-08-05T00:28:08.777Z,4.28
2023-08-05T00:30:36.119Z,4.43
2023-08-05T00:33:03.748Z,4.93
2023-08-05T00:35:31.278Z,4.30
2023-08-05T00:37:58.929Z,4.55
2023-08-05T00:40:26.366Z,4.57
2023-08-05T00:42:54.032Z,4.28
2023-08-05T00:45:21.935Z,4.20
2023-08-05T00:47:49.696Z,4.72
2023-08-05T00:50:17.271Z,4.47
2023-08-05T00:52:45.036Z,4.38
2023-08-05T00:55:12.572Z,5.13
2023-08-05T00:57:40.222Z,4.75
2023-08-05T01:00:08.082Z,4.63
2023-08-05T01:02:35.821Z,5.70
2023-08-05T01:05:03.357Z,4.88
2023-08-05T01:07:31.640Z,5.57
2023-08-05T01:09:59.012Z,5.00
2023-08-05T01:12:26.653Z,5.18
2023-08-05T01:14:54.628Z,5.55
2023-08-05T01:17:22.319Z,5.32
2023-08-05T01:19:49.858Z,5.22
2023-08-05T01:22:42.370Z,5.57
2023-08-05T01:25:28.689Z,4.90
2023-08-05T01:28:00.826Z,4.45
2023-08-05T01:30:28.790Z,5.38
2023-08-05T01:32:57.198Z,4.72
2023-08-05T01:35:25.439Z,5.30
2023-08-05T01:37:53.097Z,5.20
2023-08-05T01:40:20.456Z,5.30
2023-08-05T01:42:48.181Z,6.00
2023-08-05T01:45:15.540Z,5.25
2023-08-05T01:47:43.475Z,5.07
2023-08-05T01:50:11.067Z,6.38
2023-08-05T01:52:38.697Z,5.40
2023-08-05T01:55:06.227Z,5.85
2023-08-05T01:57:33.856Z,5.15
2023-08-05T02:00:01.238Z,5.30
2023-08-05T02:02:29.109Z,5.93
2023-08-05T02:04:56.565Z,5.68
2023-08-05T02:07:24.239Z,6.15
2023-08-05T02:09:51.586Z,5.57
2023-08-05T02:12:19.236Z,5.40
2023-08-05T02:14:46.664Z,4.55
2023-08-05T02:17:14.301Z,4.90
2023-08-05T02:19:41.649Z,5.10
2023-08-05T02:22:09.280Z,5.00
2023-08-05T02:24:36.703Z,5.22
2023-08-05T02:27:04.479Z,4.43
2023-08-05T02:29:31.833Z,4.45
2023-08-05T02:31:59.616Z,4.63
2023-08-05T02:34:26.951Z,4.93
2023-08-05T02:36:54.953Z,4.63
2023-08-05T02:39:22.313Z,4.80
2023-08-05T02:41:49.956Z,5.05
2023-08-05T02:44:17.319Z,4.38
2023-08-05T02:46:45.274Z,4.30
2023-08-05T02:49:12.795Z,4.57
2023-08-05T02:51:40.548Z,5.00
2023-08-05T02:54:08.009Z,4.43
2023-08-05T02:56:35.732Z,4.93
2023-08-05T02:59:03.114Z,5.70
2023-08-05T03:01:31.883Z,4.78
2023-08-05T03:03:59.347Z,4.38
2023-08-05T03:06:26.969Z,5.13
2023-08-05T03:08:54.318Z,5.05
2023-08-05T03:11:22.418Z,5.68
2023-08-05T03:13:49.862Z,4.97
2023-08-05T03:16:17.649Z,4.88
2023-08-05T03:18:45.068Z,5.30
2023-08-05T03:21:12.738Z,5.60
2023-08-05T03:23:40.116Z,5.55
2023-08-05T03:26:07.803Z,4.95
2023-08-05T03:28:35.393Z,5.03
2023-08-05T03:31:03.277Z,4.55
2023-08-05T03:33:31.088Z,4.53
2023-08-05T03:35:58.744Z,4.60
2023-08-05T03:38:26.584Z,6.38
2023-08-05T03:40:54.245Z,6.70
2023-08-05T03:43:21.646Z,5.35
2023-08-05T03:45:52.944Z,6.03
2023-08-05T03:48:20.625Z,5.50
2023-08-05T03:50:48.361Z,6.40
2023-08-05T03:53:15.771Z,5.57
2023-08-05T03:55:43.736Z,5.85
2023-08-05T03:58:12.466Z,5.88
2023-08-05T04:00:44.329Z,5.68
2023-08-05T04:03:11.828Z,6.88
2023-08-05T04:05:41.370Z,6.22
2023-08-05T04:08:08.808Z,6.22
2023-08-05T04:10:38.608Z,5.03
2023-08-05T04:13:05.987Z,6.03
2023-08-05T04:15:36.294Z,4.68
2023-08-05T04:18:04.497Z,3.72
2023-08-05T04:20:35.100Z,4.43
2023-08-05T04:23:02.763Z,5.35
2023-08-05T04:25:32.442Z,5.00
2023-08-05T04:27:59.945Z,4.72
2023-08-05T04:30:27.779Z,4.78
2023-08-05T04:32:55.204Z,4.25
2023-08-05T04:35:22.863Z,4.55
2023-08-05T04:37:50.219Z,3.97
2023-08-05T04:40:18.110Z,3.42
2023-08-05T04:42:46.769Z,3.72
2023-08-05T04:45:15.047Z,3.95
2023-08-05T04:47:42.661Z,7.35
2023-08-05T04:50:10.677Z,4.45
2023-08-05T04:52:38.111Z,4.63
2023-08-05T04:55:12.543Z,5.93
2023-08-05T04:57:40.024Z,4.43
2023-08-05T05:00:08.032Z,4.30
2023-08-05T05:02:35.498Z,3.60
2023-08-05T05:05:04.218Z,3.65
2023-08-05T05:07:31.803Z,3.65
2023-08-05T05:09:59.456Z,3.83
2023-08-05T05:12:26.845Z,4.07
2023-08-05T05:14:54.505Z,4.18
2023-08-05T05:17:22.815Z,4.13
2023-08-05T05:19:50.765Z,3.75
2023-08-05T05:22:18.676Z,3.60
2023-08-05T05:24:46.936Z,3.45
2023-08-05T05:27:19.067Z,3.35
2023-08-05T05:29:47.082Z,3.42
2023-08-05T05:32:14.453Z,3.25
2023-08-05T05:34:42.125Z,3.22
2023-08-05T05:37:09.657Z,3.40
2023-08-05T05:39:37.342Z,3.15
2023-08-05T05:42:04.868Z,3.97
2023-08-05T05:44:32.612Z,4.63
2023-08-05T05:46:59.974Z,4.88
2023-08-05T05:49:29.011Z,3.85
2023-08-05T05:51:56.463Z,4.43
2023-08-05T05:54:24.265Z,3.63
2023-08-05T05:56:52.008Z,4.53
2023-08-05T05:59:19.886Z,3.50
2023-08-05T06:01:47.249Z,3.50
2023-08-05T06:04:15.273Z,3.53
2023-08-05T06:06:42.731Z,3.55
2023-08-05T06:09:10.466Z,3.17
2023-08-05T06:11:37.855Z,3.03
2023-08-05T06:14:06.515Z,2.90
2023-08-05T06:16:35.616Z,2.92
2023-08-05T06:19:04.924Z,3.47
2023-08-05T06:21:32.335Z,3.38
2023-08-05T06:24:00.041Z,2.55
2023-08-05T06:26:27.792Z,2.78
2023-08-05T06:28:55.455Z,2.60
2023-08-05T06:31:22.902Z,2.40
2023-08-05T06:33:50.621Z,2.33
2023-08-05T06:36:18.047Z,2.67
2023-08-05T06:38:45.807Z,2.30
2023-08-05T06:41:13.127Z,2.30
2023-08-05T06:43:40.765Z,2.40
2023-08-05T06:46:08.139Z,2.30
2023-08-05T06:48:35.783Z,1.80
2023-08-05T06:51:03.149Z,2.22
2023-08-05T06:53:30.866Z,2.15
2023-08-05T06:56:02.379Z,2.30
2023-08-05T06:58:30.065Z,2.30
2023-08-05T07:00:57.449Z,2.10
2023-08-05T07:03:26.446Z,2.30
2023-08-05T07:05:57.527Z,2.30
2023-08-05T07:08:26.864Z,1.80
2023-08-05T07:10:55.457Z,1.75
2023-08-05T07:13:23.179Z,2.10
2023-08-05T07:15:50.577Z,1.92
2023-08-05T07:18:18.575Z,1.92
2023-08-05T07:20:47.340Z,2.15
2023-08-05T07:23:14.993Z,2.20
2023-08-05T07:25:42.380Z,2.00
2023-08-05T07:28:10.046Z,2.20
2023-08-05T07:30:37.501Z,2.47
2023-08-05T07:33:12.937Z,2.20
2023-08-05T07:35:40.411Z,2.35
2023-08-05T07:38:11.348Z,2.05
2023-08-05T07:40:40.227Z,2.08
2023-08-05T07:43:10.227Z,1.80
2023-08-05T07:45:37.920Z,2.00
2023-08-05T07:48:11.050Z,2.38
2023-08-05T07:50:38.396Z,2.00
2023-08-05T07:53:06.683Z,2.08
2023-08-05T07:55:36.203Z,2.20
2023-08-05T07:58:05.746Z,1.92
2023-08-05T08:00:34.446Z,2.10
2023-08-05T08:03:02.130Z,2.30
2023-08-05T08:05:30.154Z,2.20
2023-08-05T08:07:58.061Z,1.95
2023-08-05T08:10:26.439Z,2.10
2023-08-05T08:12:54.640Z,2.08
2023-08-05T08:15:22.316Z,2.00
2023-08-05T08:17:50.116Z,1.88
2023-08-05T08:20:17.592Z,2.10
2023-08-05T08:22:45.295Z,2.38
2023-08-05T08:25:12.668Z,2.08
2023-08-05T08:27:40.314Z,2.05
2023-08-05T08:30:08.002Z,2.17
2023-08-05T08:32:36.012Z,2.10
2023-08-05T08:35:04.026Z,1.50
2023-08-05T08:37:31.682Z,2.25
2023-08-05T08:39:59.044Z,2.20
2023-08-05T08:42:27.815Z,1.88
2023-08-05T08:44:55.512Z,1.90
2023-08-05T08:47:24.831Z,1.85
2023-08-05T08:49:54.464Z,1.92
2023-08-05T08:52:22.844Z,1.80
2023-08-05T08:54:52.152Z,2.10
2023-08-05T08:57:19.932Z,1.83
2023-08-05T08:59:48.301Z,2.10
2023-08-05T09:02:26.086Z,2.17
2023-08-05T09:04:54.649Z,2.13
2023-08-05T09:07:28.333Z,2.00
2023-08-05T09:09:55.746Z,1.95
2023-08-05T09:12:23.373Z,1.90
2023-08-05T09:14:57.160Z,2.10
2023-08-05T09:17:24.836Z,1.83
2023-08-05T09:19:52.168Z,1.98
2023-08-05T09:22:19.800Z,1.80
2023-08-05T09:24:47.147Z,2.08
2023-08-05T09:27:14.775Z,1.63
2023-08-05T09:29:42.143Z,1.75
2023-08-05T09:32:09.802Z,2.03
2023-08-05T09:34:38.691Z,1.65
2023-08-05T09:37:07.908Z,1.85
2023-08-05T09:39:49.115Z,1.70
2023-08-05T09:42:20.209Z,1.80
2023-08-05T09:44:48.261Z,1.80
2023-08-05T09:47:19.202Z,1.90
2023-08-05T09:49:52.368Z,1.80
2023-08-05T09:52:22.258Z,2.08
2023-08-05T09:55:01.010Z,1.70
2023-08-05T09:57:29.612Z,1.90
2023-08-05T09:59:59.338Z,1.77
2023-08-05T10:02:27.250Z,1.90
2023-08-05T10:04:55.765Z,2.03
2023-08-05T10:07:24.424Z,1.80
2023-08-05T10:09:52.298Z,2.15
2023-08-05T10:12:24.510Z,2.25
2023-08-05T10:14:52.585Z,2.30
2023-08-05T10:17:20.587Z,2.03
2023-08-05T10:19:48.959Z,2.40
2023-08-05T10:22:22.117Z,2.00
2023-08-05T10:27:17.068Z,2.03
2023-08-05T10:29:54.053Z,2.20
2023-08-05T10:32:33.456Z,2.20
2023-08-05T10:35:19.540Z,2.50
2023-08-05T10:37:50.415Z,2.22
2023-08-05T10:40:36.328Z,2.35
2023-08-05T10:43:03.993Z,2.40
2023-08-05T10:45:31.325Z,2.30
2023-08-05T10:47:59.037Z,2.42
2023-08-05T10:50:28.022Z,1.80
2023-08-05T10:52:55.759Z,2.08
2023-08-05T10:55:27.686Z,2.17
2023-08-05T10:57:55.843Z,4.20
2023-08-05T11:00:24.456Z,4.13
2023-08-05T11:03:12.302Z,2.70
2023-08-05T11:05:39.813Z,2.28
2023-08-05T11:08:08.158Z,2.20
2023-08-05T11:10:35.875Z,1.77
2023-08-05T11:13:04.013Z,2.72
2023-08-05T11:15:31.377Z,2.05
2023-08-05T11:17:59.061Z,2.20
2023-08-05T11:20:33.101Z,2.42
2023-08-05T11:23:01.347Z,2.08
2023-08-05T11:25:28.785Z,2.20
2023-08-05T11:27:57.123Z,1.88
2023-08-05T11:30:24.519Z,1.90
2023-08-05T11:32:52.222Z,2.22
2023-08-05T11:35:19.679Z,1.70
2023-08-05T11:37:47.352Z,1.60
2023-08-05T11:40:14.784Z,1.73
2023-08-05T11:42:42.633Z,1.90
2023-08-05T11:45:13.666Z,1.75
2023-08-05T11:47:42.083Z,1.70
2023-08-05T11:50:10.422Z,1.80
2023-08-05T11:52:40.913Z,2.10
2023-08-05T11:55:08.997Z,1.95
2023-08-05T11:57:36.877Z,2.08
2023-08-05T12:00:05.956Z,1.80
2023-08-05T12:02:35.572Z,1.98
2023-08-05T12:05:05.974Z,1.77
2023-08-05T12:07:41.009Z,1.70
2023-08-05T12:10:09.987Z,1.80
2023-08-05T12:12:38.373Z,1.95
2023-08-05T12:15:12.293Z,2.10
2023-08-05T12:17:40.827Z,2.20
2023-08-05T12:20:11.445Z,2.35
2023-08-05T12:22:39.203Z,2.15
2023-08-05T12:25:06.883Z,2.25
2023-08-05T12:27:34.540Z,1.88
2023-08-05T12:30:01.997Z,1.90
2023-08-05T12:32:29.789Z,2.05
2023-08-05T12:34:57.175Z,2.10
2023-08-05T12:37:24.810Z,2.92
2023-08-05T12:39:52.124Z,2.10
2023-08-05T12:42:19.765Z,2.00
2023-08-05T12:44:47.197Z,2.03
2023-08-05T12:47:15.242Z,2.00
2023-08-05T12:49:44.142Z,1.95
2023-08-05T12:52:11.865Z,2.42
2023-08-05T12:54:39.302Z,2.17
2023-08-05T12:57:06.976Z,1.60
2023-08-05T12:59:34.436Z,1.77
2023-08-05T13:02:02.197Z,2.03
2023-08-05T13:04:29.601Z,3.25
2023-08-05T13:06:57.428Z,2.47
2023-08-05T13:09:24.860Z,2.10
2023-08-05T13:11:52.769Z,1.60
2023-08-05T13:14:20.337Z,1.80
2023-08-05T13:16:48.049Z,1.75
2023-08-05T13:19:17.668Z,1.95
2023-08-05T13:21:45.389Z,1.67
2023-08-05T13:24:12.819Z,1.88
2023-08-05T13:26:40.518Z,1.63
2023-08-05T13:29:07.912Z,1.77
2023-08-05T13:31:36.435Z,2.25
2023-08-05T13:34:04.021Z,1.90
2023-08-05T13:36:31.652Z,1.80
2023-08-05T13:38:59.069Z,1.77
2023-08-05T13:41:26.753Z,1.90
2023-08-05T13:43:54.493Z,2.10
2023-08-05T13:46:22.217Z,1.80
2023-08-05T13:48:49.651Z,1.70
2023-08-05T13:51:17.313Z,2.25
2023-08-05T13:53:44.824Z,2.03
2023-08-05T13:56:12.529Z,1.95
2023-08-05T13:58:39.896Z,1.95
2023-08-05T14:01:17.982Z,2.75
2023-08-05T14:03:45.452Z,2.78
2023-08-05T14:06:13.692Z,2.80
2023-08-05T14:08:41.050Z,2.55
2023-08-05T14:11:08.740Z,1.92
2023-08-05T14:13:36.258Z,2.05
2023-08-05T14:16:04.375Z,2.00
2023-08-05T14:18:31.779Z,1.60
2023-08-05T14:20:59.624Z,2.28
2023-08-05T14:23:27.051Z,2.08
2023-08-05T14:25:54.790Z,2.10
2023-08-05T14:28:23.514Z,1.95
2023-08-05T14:30:51.264Z,2.30
2023-08-05T14:33:18.718Z,1.70
2023-08-05T14:35:46.387Z,2.00
2023-08-05T14:38:13.816Z,1.83
2023-08-05T14:40:41.538Z,1.50
2023-08-05T14:43:09.335Z,1.77
2023-08-05T14:45:43.397Z,1.92
2023-08-05T14:48:11.017Z,2.03
2023-08-05T14:50:39.309Z,2.35
2023-08-05T14:53:07.346Z,2.40
2023-08-05T14:55:35.130Z,2.05
2023-08-05T14:58:02.575Z,1.83
2023-08-05T15:00:30.775Z,1.65
2023-08-05T15:02:58.388Z,1.70
2023-08-05T15:05:26.497Z,2.03
2023-08-05T15:07:53.966Z,1.95
2023-08-05T15:10:22.334Z,2.17
2023-08-05T15:12:49.733Z,1.75
2023-08-05T15:15:17.449Z,1.80
2023-08-05T15:17:44.956Z,2.65
2023-08-05T15:20:12.913Z,2.00
2023-08-05T15:22:40.562Z,2.00
2023-08-05T15:25:08.434Z,2.00
2023-08-05T15:27:36.013Z,2.38
2023-08-05T15:30:11.217Z,2.92
2023-08-05T15:32:39.458Z,2.35
2023-08-05T15:35:09.196Z,2.42
2023-08-05T15:37:36.624Z,2.30
2023-08-05T15:40:04.392Z,2.40
2023-08-05T15:42:31.869Z,2.85
2023-08-05T15:44:59.798Z,2.78
2023-08-05T15:47:27.320Z,3.58
2023-08-05T15:49:55.054Z,3.72
2023-08-05T15:52:22.484Z,2.65
2023-08-05T15:54:51.933Z,2.72
2023-08-05T15:57:19.326Z,3.08
2023-08-05T15:59:47.226Z,2.80
2023-08-05T16:02:14.578Z,2.88
2023-08-05T16:04:42.439Z,2.42
2023-08-05T16:07:10.057Z,2.40
2023-08-05T16:09:37.745Z,2.55
2023-08-05T16:12:05.283Z,2.75
2023-08-05T16:14:32.944Z,2.22
2023-08-05T16:17:00.338Z,3.17
2023-08-05T16:19:28.019Z,2.85
2023-08-05T16:21:55.379Z,2.85
2023-08-05T16:24:23.741Z,3.45
2023-08-05T16:26:51.093Z,2.80
2023-08-05T16:29:20.680Z,2.97
2023-08-05T16:31:48.645Z,2.75
2023-08-05T16:34:16.401Z,2.72
2023-08-05T16:36:43.746Z,2.92
2023-08-05T16:39:11.415Z,3.38
2023-08-05T16:41:38.805Z,3.10
2023-08-05T16:44:07.772Z,3.05
2023-08-05T16:46:47.926Z,3.63
2023-08-05T16:49:16.487Z,3.30
2023-08-05T16:51:43.813Z,3.08
2023-08-05T16:54:11.590Z,3.47
2023-08-05T16:56:38.981Z,4.63
2023-08-05T16:59:07.904Z,3.20
2023-08-05T17:01:35.508Z,3.67
2023-08-05T17:04:03.395Z,3.70
2023-08-05T17:06:30.834Z,5.35
2023-08-05T17:08:58.526Z,4.32
2023-08-05T17:11:25.920Z,4.25
2023-08-05T17:13:53.570Z,3.45
2023-08-05T17:16:21.067Z,3.67
2023-08-05T17:18:48.760Z,3.20
2023-08-05T17:21:16.147Z,3.63
2023-08-05T17:23:45.391Z,4.20
2023-08-05T17:26:12.835Z,3.75
2023-08-05T17:28:40.528Z,3.28
2023-08-05T17:31:07.895Z,3.55
2023-08-05T17:33:35.575Z,3.30
2023-08-05T17:36:02.955Z,3.88
2023-08-05T17:38:30.602Z,3.65
2023-08-05T17:40:57.971Z,3.00
2023-08-05T17:43:25.586Z,2.97
2023-08-05T17:45:59.896Z,3.05
2023-08-05T17:48:27.743Z,3.38
2023-08-05T17:50:59.011Z,2.88
2023-08-05T17:53:26.922Z,2.85
2023-08-05T17:55:54.399Z,3.42
2023-08-05T17:58:22.153Z,4.55
2023-08-05T18:00:49.692Z,12.63
2023-08-05T18:03:17.406Z,6.45
2023-08-05T18:05:44.810Z,7.93
2023-08-05T18:08:13.216Z,7.40
2023-08-05T18:10:40.743Z,6.57
2023-08-05T18:13:08.380Z,7.55
2023-08-05T18:15:35.768Z,4.30
2023-08-05T18:18:03.518Z,4.60
2023-08-05T18:20:34.083Z,5.85
2023-08-05T18:23:01.871Z,6.80
2023-08-05T18:25:32.226Z,6.95
2023-08-05T18:27:59.860Z,6.97
2023-08-05T18:30:28.252Z,7.65
2023-08-05T18:32:56.077Z,7.03
2023-08-05T18:35:24.027Z,5.13
2023-08-05T18:37:51.872Z,4.55
2023-08-05T18:40:20.215Z,3.90
2023-08-05T18:42:48.032Z,4.53
2023-08-05T18:45:15.450Z,6.50
2023-08-05T18:47:43.150Z,4.20
2023-08-05T18:50:10.851Z,4.35
2023-08-05T18:52:38.522Z,6.50
2023-08-05T18:55:06.136Z,7.15
2023-08-05T18:57:33.748Z,5.47
2023-08-05T19:00:04.607Z,7.53
2023-08-05T19:02:32.298Z,4.80
2023-08-05T19:04:59.737Z,5.07
2023-08-05T19:07:27.522Z,5.25
2023-08-05T19:09:55.095Z,7.70
2023-08-05T19:12:22.725Z,6.18
2023-08-05T19:14:50.144Z,6.55
2023-08-05T19:17:18.107Z,7.28
2023-08-05T19:19:45.463Z,5.97
2023-08-05T19:22:13.073Z,7.00
2023-08-05T19:24:40.438Z,9.98
2023-08-05T19:27:08.180Z,5.55
2023-08-05T19:29:35.619Z,6.90
2023-08-05T19:32:03.293Z,9.05
2023-08-05T19:34:30.659Z,4.78
2023-08-05T19:36:58.281Z,5.88
2023-08-05T19:39:25.732Z,5.60
2023-08-05T19:41:53.553Z,4.45
2023-08-05T19:44:21.058Z,6.90
2023-08-05T19:46:48.803Z,5.90
2023-08-05T19:49:16.323Z,4.35
2023-08-05T19:51:44.059Z,5.18
2023-08-05T19:54:12.121Z,5.28
2023-08-05T19:56:40.031Z,4.70
2023-08-05T19:59:07.394Z,4.80
2023-08-05T20:01:35.146Z,5.18
2023-08-05T20:04:02.514Z,4.55
2023-08-05T20:06:30.196Z,9.55
2023-08-05T20:08:57.597Z,6.93
2023-08-05T20:11:25.262Z,7.72
2023-08-05T20:13:52.601Z,6.65
2023-08-05T20:16:20.459Z,5.50
2023-08-05T20:18:47.814Z,4.97
2023-08-05T20:21:15.510Z,5.10
2023-08-05T20:23:42.866Z,5.03
2023-08-05T20:26:11.010Z,4.82
2023-08-05T20:28:38.603Z,3.75
2023-08-05T20:31:06.400Z,4.68
2023-08-05T20:33:33.895Z,4.85
2023-08-05T20:36:02.100Z,5.00
2023-08-05T20:38:29.556Z,4.60
2023-08-05T20:40:57.298Z,4.95
2023-08-05T20:43:24.756Z,4.10
2023-08-05T20:45:54.454Z,5.20
2023-08-05T20:48:22.013Z,4.20
2023-08-05T20:50:56.164Z,3.88
2023-08-05T20:53:23.707Z,5.88
2023-08-05T20:55:51.907Z,10.07
2023-08-05T20:58:19.301Z,4.70
2023-08-05T21:00:46.976Z,3.63
2023-08-05T21:03:14.353Z,6.15
2023-08-05T21:08:25.385Z,8.73
2023-08-05T21:11:03.075Z,7.90
2023-08-05T21:13:30.427Z,7.03
2023-08-05T21:15:58.114Z,7.38
2023-08-05T21:18:25.560Z,7.35
2023-08-05T21:20:53.280Z,5.57
2023-08-05T21:23:20.717Z,4.78
2023-08-05T21:25:48.599Z,4.15
2023-08-05T21:28:15.965Z,3.95
2023-08-05T21:30:43.762Z,3.60
2023-08-05T21:33:11.697Z,2.72
2023-08-05T21:35:40.924Z,3.33
2023-08-05T21:38:08.321Z,2.90
2023-08-05T21:40:37.670Z,2.78
2023-08-05T21:43:05.540Z,3.13
2023-08-05T21:45:33.308Z,2.85
2023-08-05T21:48:00.627Z,2.53
2023-08-05T21:50:28.279Z,3.50
2023-08-05T21:52:55.645Z,3.03
2023-08-05T21:55:24.910Z,2.85
2023-08-05T21:57:52.248Z,2.58
2023-08-05T22:00:20.745Z,2.60
2023-08-05T22:02:48.268Z,3.08
2023-08-05T22:05:16.665Z,2.88
2023-08-05T22:07:44.210Z,2.42
2023-08-05T22:10:11.814Z,2.75
2023-08-05T22:12:39.207Z,2.78
2023-08-05T22:15:07.090Z,3.20
2023-08-05T22:17:34.578Z,3.67
2023-08-05T22:20:02.710Z,3.80
2023-08-05T22:22:30.137Z,4.18
2023-08-05T22:24:57.864Z,4.28
2023-08-05T22:27:25.279Z,4.57
2023-08-05T22:29:53.448Z,3.65
2023-08-05T22:32:20.888Z,4.03
2023-08-05T22:34:48.564Z,4.25
2023-08-05T22:37:15.932Z,4.45
2023-08-05T22:39:43.643Z,4.43
2023-08-05T22:42:11.021Z,4.18
2023-08-05T22:44:38.731Z,3.40
2023-08-05T22:47:06.284Z,4.50
2023-08-05T22:49:33.940Z,4.13
2023-08-05T22:52:01.317Z,4.53
2023-08-05T22:54:29.200Z,4.20
2023-08-05T22:56:56.708Z,4.50
2023-08-05T22:59:24.365Z,5.95
2023-08-05T23:01:51.941Z,6.25
2023-08-05T23:04:21.167Z,5.18
2023-08-05T23:06:48.586Z,6.00
2023-08-05T23:09:16.312Z,6.45
2023-08-05T23:11:43.725Z,7.93
2023-08-05T23:14:11.389Z,6.10
2023-08-05T23:16:38.781Z,7.72
2023-08-05T23:19:07.109Z,6.07
2023-08-05T23:21:34.484Z,8.80
2023-08-05T23:24:02.142Z,6.82
2023-08-05T23:26:29.479Z,5.40
2023-08-05T23:28:59.380Z,4.68
2023-08-05T23:31:26.907Z,4.32
2023-08-05T23:33:54.662Z,4.05
2023-08-05T23:36:22.069Z,4.13
2023-08-05T23:38:49.753Z,4.30
2023-08-05T23:41:17.106Z,3.75
2023-08-05T23:43:45.876Z,4.40
2023-08-05T23:46:14.013Z,4.20
2023-08-05T23:48:41.852Z,4.43
2023-08-05T23:51:09.239Z,3.88
2023-08-05T23:53:36.990Z,4.60
2023-08-05T23:56:04.417Z,4.82
2023-08-05T23:58:32.084Z,4.93
